• Join FlightAware (Why Join?)
  • Login
  • US Flag 
10:57PM EDT


 

Airport Tracker/Info


-or-


 

Live Flight TrackerFlight Track Log ✈ AAL963 ✈ 02-May-2013 ✈ KDFW - SBGR / GRU

Flight Track Log - Related Links

Times and Time Zones

All times are in EDT time to prevent confusion due to time zone crossing. See the AAL963 flight status page for this flight to view local times or setup timezone preferences in your user account.

Time Position Orientation Groundspeed Altitude Reporting Facility
EDT Latitude Longitude Course Direction KTS MPH feet Rate Location/Type
09:26PM 32.9210 -97.0510 354° North 151 174 1,900  Level FlightAware
09:26PM 32.9390 -97.0550 349° North 178 205 2,300 1,260 Climbing FlightAware
09:27PM 32.9650 -97.0630 346° North 202 232 3,100 1,800 Climbing FlightAware
09:27PM 32.9890 -97.0710 344° North 211 243 4,000 2,400 Climbing FlightAware
09:28PM 33.0150 -97.0820 340° North 215 247 5,300 2,100 Climbing FlightAware
09:28PM 33.0280 -97.0970 316° Northwest 242 278 5,600 1,560 Climbing FlightAware
09:28PM 33.0340 -97.1150 292° West 253 291 6,100 1,920 Climbing FlightAware
09:28PM 33.0350 -97.1250 277° West 255 293 6,400 2,100 Climbing FlightAware
09:29PM 33.0300 -97.1710 263° West 270 311 7,500 2,280 Climbing FlightAware
09:29PM 33.0150 -97.2110 246° West 275 316 8,700 2,160 Climbing FlightAware
09:30PM 33.0020 -97.2460 246° West 277 319 9,500 1,080 Climbing FlightAware
09:30PM 32.9860 -97.2880 246° West 303 349 9,700 900 Climbing FlightAware
09:30PM 32.9730 -97.3090 234° Southwest 310 357 10,200 1,620 Climbing FlightAware
09:31PM 32.9400 -97.3270 205° Southwest 330 380 10,800 1,260 Climbing FlightAware
09:32PM 32.8500 -97.3290 181° South 381 438 11,900 1,500 Climbing FlightAware
09:33PM 32.7790 -97.2800 150° Southeast 402 463 13,300 1,920 Climbing FlightAware
09:33PM 32.7090 -97.2440 157° South 411 473 14,700 2,160 Climbing FlightAware
09:34PM 32.6390 -97.2050 155° Southeast 419 482 16,200 2,100 Climbing FlightAware
09:35PM 32.5420 -97.1490 154° Southeast 428 493 18,100 1,860 Climbing FlightAware
09:35PM 32.4740 -97.1100 154° Southeast 439 505 19,200 1,800 Climbing FlightAware
09:36PM 32.3780 -97.0570 155° Southeast 448 516 20,800 1,800 Climbing FlightAware
09:37PM 32.3120 -97.0200 155° Southeast 454 522 21,800 1,680 Climbing FlightAware
09:38PM 32.2350 -96.9770 155° Southeast 461 531 22,900 1,800 Climbing FlightAware
09:38PM 32.1904 -96.9514 154° Southeast 457 526 23,600 1,800 Climbing FlightAware ADS-B
09:38PM 32.1307 -96.9176 154° Southeast 467 537 24,400 1,440 Climbing FlightAware ADS-B
09:39PM 32.0709 -96.8841 155° Southeast 471 542 25,100 1,200 Climbing FlightAware ADS-B
09:39PM 32.0087 -96.8490 154° Southeast 478 550 25,700 1,140 Climbing FlightAware ADS-B
09:40PM 31.9480 -96.8150 155° Southeast 481 554 26,300 1,260 Climbing FlightAware ADS-B
09:40PM 31.8776 -96.7757 155° Southeast 481 554 27,100 1,200 Climbing FlightAware ADS-B
09:41PM 31.8106 -96.7392 155° Southeast 490 564 27,700 960 Climbing FlightAware ADS-B
09:41PM 31.7572 -96.7097 155° Southeast 495 570 28,100 1,020 Climbing FlightAware ADS-B
09:42PM 31.6794 -96.6663 155° Southeast 497 572 28,800 780 Climbing FlightAware ADS-B
09:43PM 31.6122 -96.6291 155° Southeast 498 573 29,000 180 Climbing FlightAware ADS-B
09:43PM 31.5492 -96.5936 154° Southeast 498 573 29,000  Level FlightAware ADS-B
09:44PM 31.4808 -96.5554 155° Southeast 499 574 29,000 240 Level FlightAware ADS-B
09:44PM 31.4147 -96.5188 155° Southeast 501 577 29,300 720 Climbing FlightAware ADS-B
09:45PM 31.3489 -96.4825 155° Southeast 506 582 29,800 960 Climbing FlightAware ADS-B
09:45PM 31.2837 -96.4468 155° Southeast 509 586 30,300 1,260 Climbing FlightAware ADS-B
09:46PM 31.2186 -96.4110 155° Southeast 504 580 31,100 1,500 Climbing FlightAware ADS-B
09:46PM 31.2004 -96.3997 152° Southeast 506 582 31,300 1,080 Climbing FlightAware ADS-B
09:46PM 31.1758 -96.3800 146° Southeast 512 589 31,500 1,020 Climbing FlightAware ADS-B
09:46PM 31.1569 -96.3610 139° Southeast 515 593 31,700 1,260 Climbing FlightAware ADS-B
09:46PM 31.1368 -96.3356 133° Southeast 520 598 32,000 960 Climbing FlightAware ADS-B
09:47PM 31.1288 -96.3233 127° Southeast 522 601 32,000 1,020 Level FlightAware ADS-B
09:47PM 31.0862 -96.2541 126° Southeast 520 598 32,600 1,080 Climbing FlightAware ADS-B
09:48PM 31.0440 -96.1853 126° Southeast 520 598 33,100 960 Climbing FlightAware ADS-B
09:48PM 31.0019 -96.1165 126° Southeast 519 597 33,600 1,080 Climbing FlightAware ADS-B
09:49PM 30.9596 -96.0477 126° Southeast 515 593 34,200 1,200 Climbing FlightAware ADS-B
09:49PM 30.9182 -95.9806 126° Southeast 511 588 34,800 780 Climbing FlightAware ADS-B
09:50PM 30.8763 -95.9130 126° Southeast 514 592 35,000 180 Climbing FlightAware ADS-B
09:50PM 30.8335 -95.8442 126° Southeast 514 592 35,000  Level FlightAware ADS-B
09:51PM 30.7917 -95.7769 126° Southeast 513 590 35,000  Level FlightAware ADS-B
09:51PM 30.7496 -95.7094 126° Southeast 512 589 35,000  Level FlightAware ADS-B
09:52PM 30.7078 -95.6425 126° Southeast 511 588 35,000  Level FlightAware ADS-B
09:52PM 30.6663 -95.5759 126° Southeast 511 588 35,000  Level FlightAware ADS-B
09:53PM 30.6243 -95.5088 126° Southeast 509 586 35,000  Level FlightAware ADS-B
09:53PM 30.5821 -95.4414 126° Southeast 507 583 35,000  Level FlightAware ADS-B
09:54PM 30.5405 -95.3748 126° Southeast 505 581 35,000  Level FlightAware ADS-B
09:54PM 30.4987 -95.3085 126° Southeast 503 579 35,000  Level FlightAware ADS-B
09:55PM 30.4571 -95.2424 126° Southeast 502 578 35,000  Level FlightAware ADS-B
09:55PM 30.4150 -95.1757 126° Southeast 502 578 35,000  Level FlightAware ADS-B
09:56PM 30.3643 -95.0953 126° Southeast 504 580 35,000  Level FlightAware ADS-B
09:56PM 30.3211 -95.0271 126° Southeast 506 582 35,000  Level FlightAware ADS-B
09:57PM 30.2791 -94.9609 126° Southeast 508 585 35,000  Level FlightAware ADS-B
09:57PM 30.2365 -94.8938 126° Southeast 512 589 35,000  Level FlightAware ADS-B
09:58PM 30.1941 -94.8272 126° Southeast 512 589 35,000  Level FlightAware ADS-B
09:58PM 30.1513 -94.7600 126° Southeast 513 590 35,000  Level FlightAware ADS-B
09:59PM 30.1091 -94.6938 126° Southeast 514 592 35,000  Level FlightAware ADS-B
09:59PM 30.0662 -94.6268 126° Southeast 514 592 35,000  Level FlightAware ADS-B
10:00PM 30.0233 -94.5597 126° Southeast 514 592 35,000  Level FlightAware ADS-B
10:00PM 29.9800 -94.4922 127° Southeast 514 592 35,000  Level FlightAware ADS-B
10:01PM 29.9374 -94.4260 127° Southeast 514 592 35,000  Level FlightAware ADS-B
10:01PM 29.8950 -94.3601 127° Southeast 513 590 35,000  Level FlightAware ADS-B
10:02PM 29.8525 -94.2941 127° Southeast 512 589 35,000  Level FlightAware ADS-B
10:02PM 29.8097 -94.2278 127° Southeast 513 590 35,000  Level FlightAware ADS-B
10:03PM 29.7671 -94.1619 127° Southeast 513 590 35,000  Level FlightAware ADS-B
10:03PM 29.7243 -94.0959 127° Southeast 514 592 35,000  Level FlightAware ADS-B
10:04PM 29.6771 -94.0319 130° Southeast 509 586 35,000  Level FlightAware ADS-B
10:04PM 29.6481 -93.9999 136° Southeast 507 583 35,000  Level FlightAware ADS-B
10:05PM 29.6116 -93.9653 141° Southeast 504 580 35,000  Level FlightAware ADS-B
10:05PM 29.5521 -93.9150 144° Southeast 504 580 35,000  Level FlightAware ADS-B
10:06PM 29.4956 -93.8676 144° Southeast 504 580 35,000  Level FlightAware ADS-B
10:06PM 29.4379 -93.8194 144° Southeast 506 582 35,000  Level FlightAware ADS-B
10:07PM 29.3809 -93.7715 144° Southeast 506 582 35,000  Level FlightAware ADS-B
10:07PM 29.3231 -93.7228 144° Southeast 507 583 35,000  Level FlightAware ADS-B
10:08PM 29.2661 -93.6748 144° Southeast 509 586 35,000  Level FlightAware ADS-B
10:08PM 29.2089 -93.6268 144° Southeast 510 587 35,000  Level FlightAware ADS-B
10:09PM 29.1464 -93.5745 144° Southeast 511 588 35,000  Level FlightAware ADS-B
10:09PM 29.0879 -93.5256 144° Southeast 511 588 35,000  Level FlightAware ADS-B
10:10PM 29.0289 -93.4763 144° Southeast 512 589 35,000  Level FlightAware ADS-B
10:10PM 28.9703 -93.4275 144° Southeast 512 589 35,000  Level FlightAware ADS-B
10:11PM 28.9102 -93.3774 144° Southeast 512 589 35,000 -120 Level FlightAware ADS-B
10:11PM 28.8783 -93.3494 144° Southeast 511 588 34,900 -120 Descending Houston Center
10:12PM 28.7639 -93.2539 144° Southeast 510 587 34,900  Level Houston Center
10:13PM 28.6483 -93.1567 144° Southeast 516 594 34,900  Level Houston Center
10:14PM 28.5331 -93.0603 144° Southeast 516 594 35,000  Climbing Houston Center
10:15PM 28.4175 -92.9639 144° Southeast 515 593 34,900  Descending Houston Center
10:16PM 28.3014 -92.8692 144° Southeast 514 592 35,000  Climbing Houston Center
10:17PM 28.1867 -92.7717 143° Southeast 516 594 34,900  Descending Houston Center
10:18PM 28.0706 -92.6761 144° Southeast 515 593 35,000  Climbing Houston Center
10:19PM 27.9547 -92.5819 144° Southeast 513 590 35,000  Level Houston Center
10:20PM 27.8392 -92.4892 145° Southeast 511 588 35,000 -60 Level Houston Center
10:21PM 27.7006 -92.3756 144° Southeast 513 590 34,900 -60 Descending Houston Center
10:22PM 27.5856 -92.2778 143° Southeast 516 594 34,900  Level Houston Center
10:23PM 27.4675 -92.1858 145° Southeast 517 595 35,000  Climbing Houston Center
10:24PM 27.3494 -92.0919 145° Southeast 517 595 35,000 -60 Level Houston Center
10:25PM 27.2289 -92.0003 146° Southeast 520 598 34,900  Descending Houston Center
10:26PM 27.1094 -91.9067 145° Southeast 522 601 35,000  Climbing Houston Center
10:27PM 26.9889 -91.8125 145° Southeast 525 604 35,000  Level Houston Center
10:29PM 26.8682 -91.6915 145° Southeast  Level FlightAware Approximate
10:36PM 26.1107 -91.0944 145° Southeast  Level FlightAware Approximate
10:37PM 26.0025 -91.0094 145° Southeast  Level FlightAware Approximate
10:38PM 25.8943 -90.9244 145° Southeast  Level FlightAware Approximate
10:39PM 25.7861 -90.8397 145° Southeast  Level FlightAware Approximate
10:40PM 25.6777 -90.7551 145° Southeast  Level FlightAware Approximate
10:41PM 25.5694 -90.6706 145° Southeast  Level FlightAware Approximate
10:42PM 25.4597 -90.5884 148° Southeast  Level FlightAware Approximate
10:43PM 25.3478 -90.5101 148° Southeast  Level FlightAware Approximate
10:44PM 25.2399 -90.4252 144° Southeast  Level FlightAware Approximate
10:45PM 25.1323 -90.3399 145° Southeast  Level FlightAware Approximate
10:46PM 25.0241 -90.2556 145° Southeast  Level FlightAware Approximate
10:47PM 24.9158 -90.1715 145° Southeast  Level FlightAware Approximate
10:48PM 24.8075 -90.0875 145° Southeast  Level FlightAware Approximate
10:49PM 24.6992 -90.0036 145° Southeast  Level FlightAware Approximate
10:50PM 24.5910 -89.9201 145° Southeast  Level FlightAware Approximate
10:51PM 24.4844 -89.8344 138° Southeast  Level FlightAware Approximate
10:52PM 24.4130 -89.7122 123° Southeast  Level FlightAware Approximate
10:53PM 24.3417 -89.5900 123° Southeast  Level FlightAware Approximate
10:54PM 24.2704 -89.4678 123° Southeast  Level FlightAware Approximate
10:55PM 24.1990 -89.3458 123° Southeast  Level FlightAware Approximate
10:56PM 24.1274 -89.2240 123° Southeast  Level FlightAware Approximate
10:57PM 24.0558 -89.1023 123° Southeast  Level FlightAware Approximate
10:58PM 23.9841 -88.9807 123° Southeast  Level FlightAware Approximate
10:59PM 23.9123 -88.8592 122° Southeast  Level FlightAware Approximate
11:00PM 23.8413 -88.7373 122° Southeast  Level FlightAware Approximate
11:01PM 23.7701 -88.6155 123° Southeast  Level FlightAware Approximate
11:02PM 23.6989 -88.4939 123° Southeast  Level FlightAware Approximate
11:03PM 23.6275 -88.3724 123° Southeast  Level FlightAware Approximate
11:04PM 23.5561 -88.2510 123° Southeast  Level FlightAware Approximate
11:05PM 23.4845 -88.1298 123° Southeast  Level FlightAware Approximate
11:06PM 23.4129 -88.0087 123° Southeast  Level FlightAware Approximate
11:07PM 23.3412 -87.8877 123° Southeast  Level FlightAware Approximate
11:08PM 23.2693 -87.7668 123° Southeast  Level FlightAware Approximate
11:09PM 23.1974 -87.6461 123° Southeast  Level FlightAware Approximate
11:10PM 23.1254 -87.5255 123° Southeast  Level FlightAware Approximate
11:11PM 23.0533 -87.4051 123° Southeast  Level FlightAware Approximate
11:12PM 22.9811 -87.2847 123° Southeast  Level FlightAware Approximate
11:13PM 22.9089 -87.1645 123° Southeast  Level FlightAware Approximate
11:14PM 22.8365 -87.0445 123° Southeast  Level FlightAware Approximate
11:15PM 22.7640 -86.9245 123° Southeast  Level FlightAware Approximate
11:16PM 22.6915 -86.8047 123° Southeast  Level FlightAware Approximate
11:17PM 22.6189 -86.6850 123° Southeast  Level FlightAware Approximate
11:18PM 22.5460 -86.5652 123° Southeast  Level FlightAware Approximate
11:19PM 22.4731 -86.4456 123° Southeast  Level FlightAware Approximate
11:20PM 22.4000 -86.3260 123° Southeast  Level FlightAware Approximate
11:21PM 22.3269 -86.2066 123° Southeast  Level FlightAware Approximate
11:22PM 22.2537 -86.0874 124° Southeast  Level FlightAware Approximate
11:23PM 22.1808 -85.9679 123° Southeast  Level FlightAware Approximate
11:24PM 22.1089 -85.8479 123° Southeast  Level FlightAware Approximate
11:25PM 22.0370 -85.7279 123° Southeast  Level FlightAware Approximate
11:26PM 21.9649 -85.6081 123° Southeast  Level FlightAware Approximate
11:27PM 21.8919 -85.4890 124° Southeast  Level FlightAware Approximate
11:28PM 21.8186 -85.3701 124° Southeast  Level FlightAware Approximate
11:29PM 21.7452 -85.2514 124° Southeast  Level FlightAware Approximate
11:30PM 21.6717 -85.1328 124° Southeast  Level FlightAware Approximate
11:31PM 21.5982 -85.0144 124° Southeast  Level FlightAware Approximate
11:32PM 21.5245 -84.8960 124° Southeast  Level FlightAware Approximate
11:33PM 21.4508 -84.7778 124° Southeast  Level FlightAware Approximate
11:34PM 21.3770 -84.6597 124° Southeast  Level FlightAware Approximate
11:35PM 21.3031 -84.5417 124° Southeast  Level FlightAware Approximate
11:36PM 21.2291 -84.4238 124° Southeast  Level FlightAware Approximate
11:37PM 21.1550 -84.3061 124° Southeast  Level FlightAware Approximate
11:38PM 21.0809 -84.1884 124° Southeast  Level FlightAware Approximate
11:39PM 21.0067 -84.0709 124° Southeast  Level FlightAware Approximate
11:40PM 20.9324 -83.9535 124° Southeast  Level FlightAware Approximate
11:41PM 20.8580 -83.8363 124° Southeast  Level FlightAware Approximate
11:42PM 20.7835 -83.7191 124° Southeast  Level FlightAware Approximate
11:43PM 20.7090 -83.6020 124° Southeast  Level FlightAware Approximate
11:44PM 20.6344 -83.4851 124° Southeast  Level FlightAware Approximate
11:45PM 20.5597 -83.3683 124° Southeast  Level FlightAware Approximate
11:46PM 20.4849 -83.2516 124° Southeast  Level FlightAware Approximate
11:47PM 20.4100 -83.1350 124° Southeast  Level FlightAware Approximate
11:48PM 20.3351 -83.0185 124° Southeast  Level FlightAware Approximate
11:49PM 20.2602 -82.9024 124° Southeast  Level FlightAware Approximate
11:50PM 20.1853 -82.7863 125° Southeast  Level FlightAware Approximate
11:51PM 20.1056 -82.6832 125° Southeast  Level FlightAware Approximate
11:52PM 20.0300 -82.5677 125° Southeast  Level FlightAware Approximate
11:53PM 19.9542 -82.4524 125° Southeast  Level FlightAware Approximate
11:54PM 19.8784 -82.3372 125° Southeast  Level FlightAware Approximate
11:55PM 19.8025 -82.2222 125° Southeast  Level FlightAware Approximate
11:56PM 19.7266 -82.1072 125° Southeast  Level FlightAware Approximate
11:57PM 19.6508 -81.9922 125° Southeast  Level FlightAware Approximate
11:58PM 19.5757 -81.8767 125° Southeast  Level FlightAware Approximate
11:59PM 19.5005 -81.7613 125° Southeast  Level FlightAware Approximate
12:00AM 19.4253 -81.6460 125° Southeast  Level FlightAware Approximate
12:01AM 19.3500 -81.5308 125° Southeast  Level FlightAware Approximate
12:02AM 19.2746 -81.4157 125° Southeast  Level FlightAware Approximate
12:03AM 19.1991 -81.3007 125° Southeast  Level FlightAware Approximate
12:04AM 19.1236 -81.1859 125° Southeast  Level FlightAware Approximate
12:05AM 19.0475 -81.0715 125° Southeast  Level FlightAware Approximate
12:06AM 18.9711 -80.9574 125° Southeast  Level FlightAware Approximate
12:07AM 18.8946 -80.8434 125° Southeast  Level FlightAware Approximate
12:08AM 18.8180 -80.7296 125° Southeast  Level FlightAware Approximate
12:09AM 18.7414 -80.6158 125° Southeast  Level FlightAware Approximate
12:10AM 18.6646 -80.5021 125° Southeast  Level FlightAware Approximate
12:11AM 18.5879 -80.3885 125° Southeast  Level FlightAware Approximate
12:12AM 18.5110 -80.2751 126° Southeast  Level FlightAware Approximate
12:13AM 18.4341 -80.1617 126° Southeast  Level FlightAware Approximate
12:14AM 18.3571 -80.0484 126° Southeast  Level FlightAware Approximate
12:15AM 18.2801 -79.9353 126° Southeast  Level FlightAware Approximate
12:16AM 18.2030 -79.8222 126° Southeast  Level FlightAware Approximate
12:17AM 18.1258 -79.7093 126° Southeast  Level FlightAware Approximate
12:18AM 18.0486 -79.5964 126° Southeast  Level FlightAware Approximate
12:19AM 17.9713 -79.4836 126° Southeast  Level FlightAware Approximate
12:20AM 17.8939 -79.3710 126° Southeast  Level FlightAware Approximate
12:21AM 17.8165 -79.2584 126° Southeast  Level FlightAware Approximate
12:22AM 17.7390 -79.1459 126° Southeast  Level FlightAware Approximate
12:23AM 17.6614 -79.0336 126° Southeast  Level FlightAware Approximate
12:24AM 17.5838 -78.9213 126° Southeast  Level FlightAware Approximate
12:25AM 17.5061 -78.8091 126° Southeast  Level FlightAware Approximate
12:26AM 17.4283 -78.6970 126° Southeast  Level FlightAware Approximate
12:27AM 17.3505 -78.5851 126° Southeast  Level FlightAware Approximate
12:28AM 17.2726 -78.4732 126° Southeast  Level FlightAware Approximate
12:29AM 17.1947 -78.3614 126° Southeast  Level FlightAware Approximate
12:30AM 17.1167 -78.2497 126° Southeast  Level FlightAware Approximate
12:31AM 17.0386 -78.1380 126° Southeast  Level FlightAware Approximate
12:32AM 16.9605 -78.0265 126° Southeast  Level FlightAware Approximate
12:33AM 16.8823 -77.9151 126° Southeast  Level FlightAware Approximate
12:34AM 16.8040 -77.8038 126° Southeast  Level FlightAware Approximate
12:35AM 16.7257 -77.6925 126° Southeast  Level FlightAware Approximate
12:36AM 16.6474 -77.5814 126° Southeast  Level FlightAware Approximate
12:37AM 16.5689 -77.4703 126° Southeast  Level FlightAware Approximate
12:38AM 16.4904 -77.3594 126° Southeast  Level FlightAware Approximate
12:39AM 16.4119 -77.2485 126° Southeast  Level FlightAware Approximate
12:40AM 16.3333 -77.1377 126° Southeast  Level FlightAware Approximate
12:41AM 16.2546 -77.0270 126° Southeast  Level FlightAware Approximate
12:42AM 16.1759 -76.9164 127° Southeast  Level FlightAware Approximate
12:43AM 16.0972 -76.8059 127° Southeast  Level FlightAware Approximate
12:44AM 16.0183 -76.6954 127° Southeast  Level FlightAware Approximate
12:45AM 15.9394 -76.5851 127° Southeast  Level FlightAware Approximate
12:46AM 15.8605 -76.4748 127° Southeast  Level FlightAware Approximate
12:47AM 15.7815 -76.3646 127° Southeast  Level FlightAware Approximate
12:48AM 15.7024 -76.2546 127° Southeast  Level FlightAware Approximate
12:49AM 15.6233 -76.1446 127° Southeast  Level FlightAware Approximate
12:50AM 15.5442 -76.0346 127° Southeast  Level FlightAware Approximate
12:51AM 15.4649 -75.9248 127° Southeast  Level FlightAware Approximate
12:52AM 15.3857 -75.8151 127° Southeast  Level FlightAware Approximate
12:53AM 15.3063 -75.7054 127° Southeast  Level FlightAware Approximate
12:54AM 15.2270 -75.5958 127° Southeast  Level FlightAware Approximate
12:55AM 15.1475 -75.4863 127° Southeast  Level FlightAware Approximate
12:56AM 15.0681 -75.3769 127° Southeast  Level FlightAware Approximate
12:57AM 14.9885 -75.2676 127° Southeast  Level FlightAware Approximate
12:58AM 14.9088 -75.1585 127° Southeast  Level FlightAware Approximate
12:59AM 14.8290 -75.0494 127° Southeast  Level FlightAware Approximate
01:00AM 14.7491 -74.9404 127° Southeast  Level FlightAware Approximate
01:01AM 14.6692 -74.8316 127° Southeast  Level FlightAware Approximate
01:02AM 14.5893 -74.7227 127° Southeast  Level FlightAware Approximate
01:03AM 14.5093 -74.6140 127° Southeast  Level FlightAware Approximate
01:04AM 14.4292 -74.5054 127° Southeast  Level FlightAware Approximate
01:05AM 14.3491 -74.3968 127° Southeast  Level FlightAware Approximate
01:06AM 14.2690 -74.2883 127° Southeast  Level FlightAware Approximate
01:07AM 14.1888 -74.1799 127° Southeast  Level FlightAware Approximate
01:08AM 14.0891 -74.0921 144° Southeast  Level FlightAware Approximate
01:09AM 13.9820 -74.0122 144° Southeast  Level FlightAware Approximate
01:10AM 13.8749 -73.9324 144° Southeast  Level FlightAware Approximate
01:11AM 13.7677 -73.8526 144° Southeast  Level FlightAware Approximate
01:12AM 13.6606 -73.7729 144° Southeast  Level FlightAware Approximate
01:13AM 13.5534 -73.6933 144° Southeast  Level FlightAware Approximate
01:14AM 13.4462 -73.6138 144° Southeast  Level FlightAware Approximate
01:15AM 13.3396 -73.5333 144° Southeast  Level FlightAware Approximate
01:16AM 13.2330 -73.4530 144° Southeast  Level FlightAware Approximate
01:17AM 13.1264 -73.3727 144° Southeast  Level FlightAware Approximate
01:18AM 13.0198 -73.2924 144° Southeast  Level FlightAware Approximate
01:19AM 12.9132 -73.2123 144° Southeast  Level FlightAware Approximate
01:20AM 12.8065 -73.1322 144° Southeast  Level FlightAware Approximate
01:21AM 12.6998 -73.0522 144° Southeast  Level FlightAware Approximate
01:22AM 12.5931 -72.9722 144° Southeast  Level FlightAware Approximate
01:23AM 12.4863 -72.8923 144° Southeast  Level FlightAware Approximate
01:24AM 12.3795 -72.8125 144° Southeast  Level FlightAware Approximate
01:25AM 12.2727 -72.7327 144° Southeast  Level FlightAware Approximate
01:26AM 12.1659 -72.6531 144° Southeast  Level FlightAware Approximate
01:27AM 12.0591 -72.5734 144° Southeast  Level FlightAware Approximate
01:28AM 11.9520 -72.4941 144° Southeast  Level FlightAware Approximate
01:29AM 11.8449 -72.4149 144° Southeast  Level FlightAware Approximate
01:30AM 11.7378 -72.3358 144° Southeast  Level FlightAware Approximate
01:31AM 11.6306 -72.2568 144° Southeast  Level FlightAware Approximate
01:32AM 11.5235 -72.1777 144° Southeast  Level FlightAware Approximate
01:33AM 11.4163 -72.0988 144° Southeast  Level FlightAware Approximate
01:34AM 11.3089 -72.0202 145° Southeast  Level FlightAware Approximate
01:35AM 11.2011 -71.9421 145° Southeast  Level FlightAware Approximate
01:36AM 11.0933 -71.8641 145° Southeast  Level FlightAware Approximate
01:37AM 10.9855 -71.7861 145° Southeast  Level FlightAware Approximate
01:38AM 10.8777 -71.7082 145° Southeast  Level FlightAware Approximate
01:39AM 10.7698 -71.6304 145° Southeast  Level FlightAware Approximate
01:40AM 10.6620 -71.5526 145° Southeast  Level FlightAware Approximate
01:41AM 10.5541 -71.4749 145° Southeast  Level FlightAware Approximate
01:42AM 10.4462 -71.3972 145° Southeast  Level FlightAware Approximate
01:43AM 10.3383 -71.3196 145° Southeast  Level FlightAware Approximate
01:44AM 10.2303 -71.2420 145° Southeast  Level FlightAware Approximate
01:45AM 10.1224 -71.1645 145° Southeast  Level FlightAware Approximate
01:46AM 10.0144 -71.0870 145° Southeast  Level FlightAware Approximate
01:47AM 9.9064 -71.0096 145° Southeast  Level FlightAware Approximate
01:48AM 9.7984 -70.9323 145° Southeast  Level FlightAware Approximate
01:49AM 9.6903 -70.8549 145° Southeast  Level FlightAware Approximate
01:50AM 9.5823 -70.7777 145° Southeast  Level FlightAware Approximate
01:51AM 9.4742 -70.7005 145° Southeast  Level FlightAware Approximate
01:52AM 9.3661 -70.6233 145° Southeast  Level FlightAware Approximate
01:53AM 9.2580 -70.5462 145° Southeast  Level FlightAware Approximate
01:54AM 9.1501 -70.4688 145° Southeast  Level FlightAware Approximate
01:55AM 9.0423 -70.3913 145° Southeast  Level FlightAware Approximate
01:56AM 8.9345 -70.3139 145° Southeast  Level FlightAware Approximate
01:57AM 8.8267 -70.2365 145° Southeast  Level FlightAware Approximate
01:58AM 8.7188 -70.1591 145° Southeast  Level FlightAware Approximate
01:59AM 8.6109 -70.0818 145° Southeast  Level FlightAware Approximate
02:00AM 8.5030 -70.0046 145° Southeast  Level FlightAware Approximate
02:01AM 8.3952 -69.9274 145° Southeast  Level FlightAware Approximate
02:02AM 8.2872 -69.8502 145° Southeast  Level FlightAware Approximate
02:03AM 8.1793 -69.7731 145° Southeast  Level FlightAware Approximate
02:04AM 8.0714 -69.6960 145° Southeast  Level FlightAware Approximate
02:05AM 7.9634 -69.6189 145° Southeast  Level FlightAware Approximate
02:06AM 7.8554 -69.5419 145° Southeast  Level FlightAware Approximate
02:07AM 7.7474 -69.4650 145° Southeast  Level FlightAware Approximate
02:08AM 7.6394 -69.3880 145° Southeast  Level FlightAware Approximate
02:09AM 7.5314 -69.3111 145° Southeast  Level FlightAware Approximate
02:10AM 7.4234 -69.2343 145° Southeast  Level FlightAware Approximate
02:11AM 7.3153 -69.1575 145° Southeast  Level FlightAware Approximate
02:12AM 7.2073 -69.0807 145° Southeast  Level FlightAware Approximate
02:13AM 7.0992 -69.0040 145° Southeast  Level FlightAware Approximate
02:14AM 6.9915 -68.9275 145° Southeast  Level FlightAware Approximate
02:15AM 6.8838 -68.8511 145° Southeast  Level FlightAware Approximate
02:16AM 6.7761 -68.7747 145° Southeast  Level FlightAware Approximate
02:17AM 6.6683 -68.6984 145° Southeast  Level FlightAware Approximate
02:18AM 6.5606 -68.6221 145° Southeast  Level FlightAware Approximate
02:19AM 6.4528 -68.5458 145° Southeast  Level FlightAware Approximate
02:20AM 6.3450 -68.4696 145° Southeast  Level FlightAware Approximate
02:21AM 6.2372 -68.3934 145° Southeast  Level FlightAware Approximate
02:22AM 6.1294 -68.3172 145° Southeast  Level FlightAware Approximate
02:23AM 6.0216 -68.2411 145° Southeast  Level FlightAware Approximate
02:24AM 5.9138 -68.1650 145° Southeast  Level FlightAware Approximate
02:25AM 5.8060 -68.0889 145° Southeast  Level FlightAware Approximate
02:26AM 5.6982 -68.0129 145° Southeast  Level FlightAware Approximate
02:27AM 5.5903 -67.9368 145° Southeast  Level FlightAware Approximate
02:28AM 5.4824 -67.8608 145° Southeast  Level FlightAware Approximate
02:29AM 5.3746 -67.7849 145° Southeast  Level FlightAware Approximate
02:30AM 5.2667 -67.7089 145° Southeast  Level FlightAware Approximate
02:31AM 5.1588 -67.6330 145° Southeast  Level FlightAware Approximate
02:32AM 5.0509 -67.5571 145° Southeast  Level FlightAware Approximate
02:33AM 4.9430 -67.4813 145° Southeast  Level FlightAware Approximate
02:34AM 4.8351 -67.4054 145° Southeast  Level FlightAware Approximate
02:35AM 4.7272 -67.3296 145° Southeast  Level FlightAware Approximate
02:36AM 4.6192 -67.2538 145° Southeast  Level FlightAware Approximate
02:37AM 4.5113 -67.1781 145° Southeast  Level FlightAware Approximate
02:38AM 4.4033 -67.1023 145° Southeast  Level FlightAware Approximate
02:39AM 4.2954 -67.0266 145° Southeast  Level FlightAware Approximate
02:40AM 4.1874 -66.9509 145° Southeast  Level FlightAware Approximate
02:41AM 4.0795 -66.8752 145° Southeast  Level FlightAware Approximate
02:42AM 3.9715 -66.7996 145° Southeast  Level FlightAware Approximate
02:43AM 3.8635 -66.7239 145° Southeast  Level FlightAware Approximate
02:44AM 3.7555 -66.6483 145° Southeast  Level FlightAware Approximate
02:45AM 3.6475 -66.5727 145° Southeast  Level FlightAware Approximate
02:46AM 3.5395 -66.4971 145° Southeast  Level FlightAware Approximate
02:47AM 3.4315 -66.4216 145° Southeast  Level FlightAware Approximate
02:48AM 3.3235 -66.3460 145° Southeast  Level FlightAware Approximate
02:49AM 3.2155 -66.2705 145° Southeast  Level FlightAware Approximate
02:50AM 3.1075 -66.1950 145° Southeast  Level FlightAware Approximate
02:51AM 2.9994 -66.1195 145° Southeast  Level FlightAware Approximate
02:52AM 2.8914 -66.0440 145° Southeast  Level FlightAware Approximate
02:53AM 2.7836 -65.9686 145° Southeast  Level FlightAware Approximate
02:54AM 2.6757 -65.8933 145° Southeast  Level FlightAware Approximate
02:55AM 2.5678 -65.8180 145° Southeast  Level FlightAware Approximate
02:56AM 2.4600 -65.7427 145° Southeast  Level FlightAware Approximate
02:57AM 2.3521 -65.6674 145° Southeast  Level FlightAware Approximate
02:58AM 2.2442 -65.5921 145° Southeast  Level FlightAware Approximate
02:59AM 2.1363 -65.5169 145° Southeast  Level FlightAware Approximate
03:00AM 2.0285 -65.4416 145° Southeast  Level FlightAware Approximate
03:01AM 1.9206 -65.3664 145° Southeast  Level FlightAware Approximate
03:02AM 1.8127 -65.2911 145° Southeast  Level FlightAware Approximate
03:03AM 1.7048 -65.2159 145° Southeast  Level FlightAware Approximate
03:04AM 1.5969 -65.1407 145° Southeast  Level FlightAware Approximate
03:05AM 1.4890 -65.0655 145° Southeast  Level FlightAware Approximate
03:06AM 1.3811 -64.9903 145° Southeast  Level FlightAware Approximate
03:07AM 1.2732 -64.9151 145° Southeast  Level FlightAware Approximate
03:08AM 1.1653 -64.8399 145° Southeast  Level FlightAware Approximate
03:09AM 1.0574 -64.7647 145° Southeast  Level FlightAware Approximate
03:10AM 0.9495 -64.6895 145° Southeast  Level FlightAware Approximate
03:11AM 0.8416 -64.6144 145° Southeast  Level FlightAware Approximate
03:12AM 0.7337 -64.5392 145° Southeast  Level FlightAware Approximate
03:13AM 0.6258 -64.4640 145° Southeast  Level FlightAware Approximate
03:14AM 0.5179 -64.3889 145° Southeast  Level FlightAware Approximate
03:15AM 0.4099 -64.3137 145° Southeast  Level FlightAware Approximate
03:16AM 0.3020 -64.2385 145° Southeast  Level FlightAware Approximate
03:17AM 0.1941 -64.1634 145° Southeast  Level FlightAware Approximate
03:18AM 0.0862 -64.0882 145° Southeast  Level FlightAware Approximate
03:19AM -0.0219 -64.0129 145° Southeast  Level FlightAware Approximate
03:20AM -0.1300 -63.9376 145° Southeast  Level FlightAware Approximate
03:21AM -0.2381 -63.8624 145° Southeast  Level FlightAware Approximate
03:22AM -0.3462 -63.7871 145° Southeast  Level FlightAware Approximate
03:23AM -0.4543 -63.7118 145° Southeast  Level FlightAware Approximate
03:24AM -0.5624 -63.6365 145° Southeast  Level FlightAware Approximate
03:25AM -0.6705 -63.5612 145° Southeast  Level FlightAware Approximate
03:26AM -0.7786 -63.4859 145° Southeast  Level FlightAware Approximate
03:27AM -0.8867 -63.4106 145° Southeast  Level FlightAware Approximate
03:28AM -0.9948 -63.3353 145° Southeast  Level FlightAware Approximate
03:29AM -1.1029 -63.2600 145° Southeast  Level FlightAware Approximate
03:30AM -1.2110 -63.1847 145° Southeast  Level FlightAware Approximate
03:31AM -1.3191 -63.1093 145° Southeast  Level FlightAware Approximate
03:32AM -1.4272 -63.0340 145° Southeast  Level FlightAware Approximate
03:33AM -1.5353 -62.9587 145° Southeast  Level FlightAware Approximate
03:34AM -1.6433 -62.8833 145° Southeast  Level FlightAware Approximate
03:35AM -1.7514 -62.8080 145° Southeast  Level FlightAware Approximate
03:36AM -1.8595 -62.7326 145° Southeast  Level FlightAware Approximate
03:37AM -1.9676 -62.6572 145° Southeast  Level FlightAware Approximate
03:38AM -2.0756 -62.5819 145° Southeast  Level FlightAware Approximate
03:39AM -2.1837 -62.5065 145° Southeast  Level FlightAware Approximate
03:40AM -2.2918 -62.4311 145° Southeast  Level FlightAware Approximate
03:41AM -2.3998 -62.3557 145° Southeast  Level FlightAware Approximate
03:42AM -2.5079 -62.2802 145° Southeast  Level FlightAware Approximate
03:43AM -2.6160 -62.2048 145° Southeast  Level FlightAware Approximate
03:44AM -2.7240 -62.1293 145° Southeast  Level FlightAware Approximate
03:45AM -2.8320 -62.0539 145° Southeast  Level FlightAware Approximate
03:46AM -2.9401 -61.9784 145° Southeast  Level FlightAware Approximate
03:47AM -3.0481 -61.9029 145° Southeast  Level FlightAware Approximate
03:48AM -3.1561 -61.8274 145° Southeast  Level FlightAware Approximate
03:49AM -3.2642 -61.7519 145° Southeast  Level FlightAware Approximate
03:50AM -3.3722 -61.6763 145° Southeast  Level FlightAware Approximate
03:51AM -3.4802 -61.6008 145° Southeast  Level FlightAware Approximate
03:52AM -3.5882 -61.5252 145° Southeast  Level FlightAware Approximate
03:53AM -3.6962 -61.4496 145° Southeast  Level FlightAware Approximate
03:54AM -3.8042 -61.3740 145° Southeast  Level FlightAware Approximate
03:55AM -3.9122 -61.2984 145° Southeast  Level FlightAware Approximate
03:56AM -4.0202 -61.2227 145° Southeast  Level FlightAware Approximate
03:57AM -4.1281 -61.1471 145° Southeast  Level FlightAware Approximate
03:58AM -4.2361 -61.0714 145° Southeast  Level FlightAware Approximate
03:59AM -4.3440 -60.9957 145° Southeast  Level FlightAware Approximate
04:00AM -4.4520 -60.9199 145° Southeast  Level FlightAware Approximate
04:01AM -4.5599 -60.8442 145° Southeast  Level FlightAware Approximate
04:02AM -4.6679 -60.7684 145° Southeast  Level FlightAware Approximate
04:03AM -4.7758 -60.6926 145° Southeast  Level FlightAware Approximate
04:04AM -4.8837 -60.6168 145° Southeast  Level FlightAware Approximate
04:05AM -4.9916 -60.5409 145° Southeast  Level FlightAware Approximate
04:06AM -5.0995 -60.4651 145° Southeast  Level FlightAware Approximate
04:07AM -5.2074 -60.3892 145° Southeast  Level FlightAware Approximate
04:08AM -5.3153 -60.3133 145° Southeast  Level FlightAware Approximate
04:09AM -5.4233 -60.2372 145° Southeast  Level FlightAware Approximate
04:10AM -5.5314 -60.1611 145° Southeast  Level FlightAware Approximate
04:11AM -5.6394 -60.0849 145° Southeast  Level FlightAware Approximate
04:12AM -5.7475 -60.0088 145° Southeast  Level FlightAware Approximate
04:13AM -5.8555 -59.9325 145° Southeast  Level FlightAware Approximate
04:14AM -5.9635 -59.8563 145° Southeast  Level FlightAware Approximate
04:15AM -6.0715 -59.7801 145° Southeast  Level FlightAware Approximate
04:16AM -6.1795 -59.7038 145° Southeast  Level FlightAware Approximate
04:17AM -6.2875 -59.6274 145° Southeast  Level FlightAware Approximate
04:18AM -6.3954 -59.5511 145° Southeast  Level FlightAware Approximate
04:19AM -6.5034 -59.4747 145° Southeast  Level FlightAware Approximate
04:20AM -6.6114 -59.3983 145° Southeast  Level FlightAware Approximate
04:21AM -6.7193 -59.3219 145° Southeast  Level FlightAware Approximate
04:22AM -6.8272 -59.2454 145° Southeast  Level FlightAware Approximate
04:23AM -6.9351 -59.1689 145° Southeast  Level FlightAware Approximate
04:24AM -7.0430 -59.0923 145° Southeast  Level FlightAware Approximate
04:25AM -7.1509 -59.0157 145° Southeast  Level FlightAware Approximate
04:26AM -7.2588 -58.9391 145° Southeast  Level FlightAware Approximate
04:27AM -7.3666 -58.8624 145° Southeast  Level FlightAware Approximate
04:28AM -7.4745 -58.7857 145° Southeast  Level FlightAware Approximate
04:29AM -7.5823 -58.7090 145° Southeast  Level FlightAware Approximate
04:30AM -7.6901 -58.6322 145° Southeast  Level FlightAware Approximate
04:31AM -7.7979 -58.5554 145° Southeast  Level FlightAware Approximate
04:32AM -7.9057 -58.4786 145° Southeast  Level FlightAware Approximate
04:33AM -8.0135 -58.4017 145° Southeast  Level FlightAware Approximate
04:34AM -8.1213 -58.3248 145° Southeast  Level FlightAware Approximate
04:35AM -8.2290 -58.2478 145° Southeast  Level FlightAware Approximate
04:36AM -8.3368 -58.1708 145° Southeast  Level FlightAware Approximate
04:37AM -8.4445 -58.0937 145° Southeast  Level FlightAware Approximate
04:38AM -8.5524 -58.0165 145° Southeast  Level FlightAware Approximate
04:39AM -8.6603 -57.9392 145° Southeast  Level FlightAware Approximate
04:40AM -8.7681 -57.8619 145° Southeast  Level FlightAware Approximate
04:41AM -8.8760 -57.7845 145° Southeast  Level FlightAware Approximate
04:42AM -8.9838 -57.7071 145° Southeast  Level FlightAware Approximate
04:43AM -9.0916 -57.6296 145° Southeast  Level FlightAware Approximate
04:44AM -9.1994 -57.5521 145° Southeast  Level FlightAware Approximate
04:45AM -9.3072 -57.4745 145° Southeast  Level FlightAware Approximate
04:46AM -9.4150 -57.3969 145° Southeast  Level FlightAware Approximate
04:47AM -9.5227 -57.3193 145° Southeast  Level FlightAware Approximate
04:48AM -9.6305 -57.2416 145° Southeast  Level FlightAware Approximate
04:49AM -9.7382 -57.1638 145° Southeast  Level FlightAware Approximate
04:50AM -9.8459 -57.0860 145° Southeast  Level FlightAware Approximate
04:51AM -9.9536 -57.0082 145° Southeast  Level FlightAware Approximate
04:52AM -10.0612 -56.9303 145° Southeast  Level FlightAware Approximate
04:53AM -10.1688 -56.8523 145° Southeast  Level FlightAware Approximate
04:54AM -10.2765 -56.7743 145° Southeast  Level FlightAware Approximate
04:55AM -10.3841 -56.6963 144° Southeast  Level FlightAware Approximate
04:56AM -10.4917 -56.6182 144° Southeast  Level FlightAware Approximate
04:57AM -10.5992 -56.5400 144° Southeast  Level FlightAware Approximate
04:58AM -10.7068 -56.4618 144° Southeast  Level FlightAware Approximate
04:59AM -10.8143 -56.3835 144° Southeast  Level FlightAware Approximate
05:00AM -10.9218 -56.3052 144° Southeast  Level FlightAware Approximate
05:01AM -11.0293 -56.2268 144° Southeast  Level FlightAware Approximate
05:02AM -11.1368 -56.1483 144° Southeast  Level FlightAware Approximate
05:03AM -11.2442 -56.0698 144° Southeast  Level FlightAware Approximate
05:04AM -11.3517 -55.9912 144° Southeast  Level FlightAware Approximate
05:05AM -11.4591 -55.9126 144° Southeast  Level FlightAware Approximate
05:06AM -11.5665 -55.8340 144° Southeast  Level FlightAware Approximate
05:07AM -11.6738 -55.7552 144° Southeast  Level FlightAware Approximate
05:08AM -11.7812 -55.6764 144° Southeast  Level FlightAware Approximate
05:09AM -11.8885 -55.5975 144° Southeast  Level FlightAware Approximate
05:10AM -11.9958 -55.5186 144° Southeast  Level FlightAware Approximate
05:11AM -12.1031 -55.4396 144° Southeast  Level FlightAware Approximate
05:12AM -12.2103 -55.3605 144° Southeast  Level FlightAware Approximate
05:13AM -12.3176 -55.2814 144° Southeast  Level FlightAware Approximate
05:14AM -12.4248 -55.2023 144° Southeast  Level FlightAware Approximate
05:15AM -12.5320 -55.1230 144° Southeast  Level FlightAware Approximate
05:16AM -12.6391 -55.0437 144° Southeast  Level FlightAware Approximate
05:17AM -12.7463 -54.9643 144° Southeast  Level FlightAware Approximate
05:18AM -12.8534 -54.8848 144° Southeast  Level FlightAware Approximate
05:19AM -12.9605 -54.8053 144° Southeast  Level FlightAware Approximate
05:20AM -13.0675 -54.7257 144° Southeast  Level FlightAware Approximate
05:21AM -13.1746 -54.6461 144° Southeast  Level FlightAware Approximate
05:22AM -13.2816 -54.5664 144° Southeast  Level FlightAware Approximate
05:23AM -13.3886 -54.4866 144° Southeast  Level FlightAware Approximate
05:24AM -13.4956 -54.4067 144° Southeast  Level FlightAware Approximate
05:25AM -13.6025 -54.3268 144° Southeast  Level FlightAware Approximate
05:26AM -13.7094 -54.2467 144° Southeast  Level FlightAware Approximate
05:27AM -13.8163 -54.1667 144° Southeast  Level FlightAware Approximate
05:28AM -13.9232 -54.0865 144° Southeast  Level FlightAware Approximate
05:29AM -14.0301 -54.0063 144° Southeast  Level FlightAware Approximate
05:30AM -14.1369 -53.9260 144° Southeast  Level FlightAware Approximate
05:31AM -14.2438 -53.8454 144° Southeast  Level FlightAware Approximate
05:32AM -14.3508 -53.7648 144° Southeast  Level FlightAware Approximate
05:33AM -14.4577 -53.6842 144° Southeast  Level FlightAware Approximate
05:34AM -14.5646 -53.6034 144° Southeast  Level FlightAware Approximate
05:35AM -14.6715 -53.5226 144° Southeast  Level FlightAware Approximate
05:36AM -14.7783 -53.4417 144° Southeast  Level FlightAware Approximate
05:37AM -14.8851 -53.3607 144° Southeast  Level FlightAware Approximate
05:38AM -14.9919 -53.2796 144° Southeast  Level FlightAware Approximate
05:39AM -15.0987 -53.1985 144° Southeast  Level FlightAware Approximate
05:40AM -15.2054 -53.1172 144° Southeast  Level FlightAware Approximate
05:41AM -15.3121 -53.0359 144° Southeast  Level FlightAware Approximate
05:42AM -15.4187 -52.9545 144° Southeast  Level FlightAware Approximate
05:43AM -15.5254 -52.8730 144° Southeast  Level FlightAware Approximate
05:44AM -15.6320 -52.7915 144° Southeast  Level FlightAware Approximate
05:45AM -15.7386 -52.7098 144° Southeast  Level FlightAware Approximate
05:46AM -15.8451 -52.6281 144° Southeast  Level FlightAware Approximate
05:47AM -15.9516 -52.5463 144° Southeast  Level FlightAware Approximate
05:48AM -16.0581 -52.4644 144° Southeast  Level FlightAware Approximate
05:49AM -16.1646 -52.3824 144° Southeast  Level FlightAware Approximate
05:50AM -16.2710 -52.3003 143° Southeast  Level FlightAware Approximate
05:51AM -16.3774 -52.2181 143° Southeast  Level FlightAware Approximate
05:52AM -16.4837 -52.1358 143° Southeast  Level FlightAware Approximate
05:53AM -16.5901 -52.0535 143° Southeast  Level FlightAware Approximate
05:53AM -18.4510 -50.3210 143° Southeast 482 555 37,000  Level FlightAware
05:54AM -16.6964 -51.9710 143° Southeast  Level FlightAware Approximate
05:54AM -18.5540 -50.2380 143° Southeast 482 555 37,000  Level FlightAware
05:55AM -18.6130 -50.1890 142° Southeast 482 555 37,000  Level FlightAware
05:55AM -18.6730 -50.1390 142° Southeast 482 555 37,000  Level FlightAware
05:58AM -18.9131 -49.9606 145° Southeast  Level Estimated
05:59AM -19.0214 -49.8799 145° Southeast  Level Estimated
05:59AM -19.1430 -49.7610 145° Southeast 481 554 37,000  Level FlightAware
06:00AM -19.2170 -49.6990 142° Southeast 482 555 37,000  Level FlightAware
06:01AM -19.2850 -49.6410 141° Southeast 481 554 37,000  Level FlightAware
06:01AM -19.3270 -49.6060 142° Southeast 37,000  Level FlightAware
06:02AM -19.3730 -49.5680 142° Southeast 482 555 37,000  Level FlightAware
06:03AM -19.4530 -49.5000 141° Southeast 483 556 37,000  Level FlightAware
06:03AM -19.5220 -49.4420 142° Southeast 484 557 37,000  Level FlightAware
06:04AM -19.6030 -49.3740 142° Southeast 484 557 37,000  Level FlightAware
06:05AM -19.6710 -49.3160 141° Southeast 485 558 37,000  Level FlightAware
06:05AM -19.7520 -49.2480 142° Southeast 486 559 37,000  Level FlightAware
06:06AM -19.8120 -49.1970 141° Southeast 486 559 37,000  Level FlightAware
06:07AM -19.8940 -49.1270 141° Southeast 486 559 37,000  Level FlightAware
06:08AM -19.9670 -49.0660 142° Southeast 487 560 37,000  Level FlightAware
06:08AM -20.0440 -49.0000 141° Southeast 487 560 37,000  Level FlightAware
06:09AM -20.1120 -48.9430 142° Southeast 488 562 37,000  Level FlightAware
06:10AM -20.1910 -48.8750 141° Southeast 489 563 37,000  Level FlightAware
06:10AM -20.2650 -48.8120 141° Southeast 489 563 37,000  Level FlightAware
06:11AM -20.3420 -48.7540 145° Southeast 488 562 37,000  Level FlightAware
06:12AM -20.4230 -48.7090 152° Southeast 487 560 37,000  Level FlightAware
06:12AM -20.5110 -48.6630 154° Southeast 487 560 37,000  Level FlightAware
06:13AM -20.6000 -48.6150 153° Southeast 488 562 37,000  Level FlightAware
06:14AM -20.7140 -48.5540 153° Southeast 488 562 37,000  Level FlightAware
06:15AM -20.8090 -48.5030 153° Southeast 487 560 37,000  Level FlightAware
06:15AM -20.8900 -48.4600 154° Southeast 487 560 37,000  Level FlightAware
06:16AM -20.9780 -48.4120 153° Southeast 489 563 37,000  Level FlightAware
06:17AM -21.0540 -48.3570 146° Southeast 493 567 37,000  Level FlightAware
06:17AM -21.1270 -48.2980 143° Southeast 495 570 37,000  Level FlightAware
06:18AM -21.2100 -48.2300 143° Southeast 496 571 37,000  Level FlightAware
06:19AM -21.2840 -48.1690 142° Southeast 496 571 37,000  Level FlightAware
06:19AM -21.3550 -48.1120 143° Southeast 498 573 37,000  Level FlightAware
06:20AM -21.4400 -48.0420 143° Southeast 498 573 37,000  Level FlightAware
06:21AM -21.5120 -47.9830 143° Southeast 500 575 37,000  Level FlightAware
06:22AM -21.5950 -47.9150 143° Southeast 501 577 37,000  Level FlightAware
06:22AM -21.6690 -47.8540 143° Southeast 501 577 37,000  Level FlightAware
06:23AM -21.7410 -47.7940 142° Southeast 503 579 37,000 -180 Level FlightAware
06:24AM -21.8160 -47.7320 142° Southeast 496 571 36,800 -900 Descending FlightAware
06:24AM -21.8990 -47.6640 143° Southeast 500 575 35,800 -1,500 Descending FlightAware
06:25AM -21.9720 -47.6030 142° Southeast 496 571 34,700 -2,340 Descending FlightAware
06:26AM -22.0520 -47.5360 142° Southeast 502 578 32,500 -3,060 Descending FlightAware
06:26AM -22.1270 -47.4740 143° Southeast 507 583 30,400 -2,880 Descending FlightAware
06:27AM -22.2110 -47.4040 142° Southeast 496 571 28,500 -2,400 Descending FlightAware
06:28AM -22.2720 -47.3530 142° Southeast 487 560 27,200 -2,340 Descending FlightAware
06:29AM -22.4050 -47.2420 142° Southeast 471 542 24,300 -2,400 Descending FlightAware
06:30AM -22.4720 -47.1850 142° Southeast 456 525 22,700 -2,340 Descending FlightAware
06:30AM -22.5470 -47.1230 143° Southeast 447 514 21,000 -2,220 Descending FlightAware
06:31AM -22.6210 -47.0790 151° Southeast 432 497 19,600 -2,100 Descending FlightAware
06:32AM -22.7040 -47.0440 159° South 413 475 18,100 -2,340 Descending FlightAware
06:32AM -22.7770 -47.0140 159° South 398 458 16,300 -2,220 Descending FlightAware
06:33AM -22.8420 -46.9870 159° South 376 433 15,200 -1,440 Descending FlightAware
06:34AM -22.9060 -46.9600 159° South 350 403 14,400 -1,560 Descending FlightAware
06:35AM -22.9730 -46.9310 158° South 316 364 13,000 -1,680 Descending FlightAware
06:36AM -23.0990 -46.8790 143° Southeast 260 299 10,300 -1,380 Descending FlightAware
06:37AM -23.1408 -46.7104 143° Southeast  Level FlightAware Approximate
06:38AM -23.1830 -46.8430 158° South 259 298 9,000  Level FlightAware
06:40AM -23.3361 -46.6137 145° Southeast  Level Estimated
06:40AM -23.3400 -46.7760 145° Southeast 209 241 7,100  Level FlightAware
06:41AM -23.4040 -46.7340 149° Southeast 214 246 6,200 -840 Descending FlightAware
06:42AM -23.4540 -46.6790 135° Southeast 212 244 5,200 -780 Descending FlightAware
06:44AM -23.4730 -46.6130 107° East 190 219 4,500 -600 Descending FlightAware
06:46AM -23.4321 -46.4695 73° East  Level Estimated
06:47AM -23.4321 -46.4695 350° North  Level Estimated
06:48AM -23.4321 -46.4695 350° North  Level Estimated